sensor_id;sensor_type;location;lat;lon;timestamp;P1;durP1;ratioP1;P2;durP2;ratioP2
71174;SDS011;58876;51.994;4.472;2024-03-06T00:00:25;33.47;;;32.94;;
71174;SDS011;58876;51.994;4.472;2024-03-06T00:02:51;32.28;;;32.07;;
71174;SDS011;58876;51.994;4.472;2024-03-06T00:05:16;33.28;;;32.51;;
71174;SDS011;58876;51.994;4.472;2024-03-06T00:07:42;32.64;;;32.19;;
71174;SDS011;58876;51.994;4.472;2024-03-06T00:10:07;33.85;;;33.35;;
71174;SDS011;58876;51.994;4.472;2024-03-06T00:12:33;34.27;;;33.76;;
71174;SDS011;58876;51.994;4.472;2024-03-06T00:14:59;33.55;;;32.82;;
71174;SDS011;58876;51.994;4.472;2024-03-06T00:17:25;33.15;;;32.63;;
71174;SDS011;58876;51.994;4.472;2024-03-06T00:19:52;33.92;;;33.08;;
71174;SDS011;58876;51.994;4.472;2024-03-06T00:22:17;35.33;;;34.04;;
71174;SDS011;58876;51.994;4.472;2024-03-06T00:24:43;34.35;;;33.48;;
71174;SDS011;58876;51.994;4.472;2024-03-06T00:27:08;35.85;;;35.07;;
71174;SDS011;58876;51.994;4.472;2024-03-06T00:29:35;34.72;;;34.13;;
71174;SDS011;58876;51.994;4.472;2024-03-06T00:32:03;35.62;;;35.01;;
71174;SDS011;58876;51.994;4.472;2024-03-06T00:34:28;35.37;;;34.62;;
71174;SDS011;58876;51.994;4.472;2024-03-06T00:36:54;34.70;;;33.84;;
71174;SDS011;58876;51.994;4.472;2024-03-06T00:39:20;35.09;;;34.20;;
71174;SDS011;58876;51.994;4.472;2024-03-06T00:41:45;33.76;;;32.92;;
71174;SDS011;58876;51.994;4.472;2024-03-06T00:44:11;34.81;;;33.42;;
71174;SDS011;58876;51.994;4.472;2024-03-06T00:46:36;34.83;;;33.56;;
71174;SDS011;58876;51.994;4.472;2024-03-06T00:49:02;33.20;;;32.69;;
71174;SDS011;58876;51.994;4.472;2024-03-06T00:51:27;32.06;;;31.73;;
71174;SDS011;58876;51.994;4.472;2024-03-06T00:53:53;34.89;;;33.62;;
71174;SDS011;58876;51.994;4.472;2024-03-06T00:56:18;33.80;;;33.55;;
71174;SDS011;58876;51.994;4.472;2024-03-06T00:58:43;33.85;;;33.59;;
71174;SDS011;58876;51.994;4.472;2024-03-06T01:01:09;33.11;;;32.94;;
71174;SDS011;58876;51.994;4.472;2024-03-06T01:03:34;34.67;;;33.83;;
71174;SDS011;58876;51.994;4.472;2024-03-06T01:06:00;34.64;;;33.77;;
71174;SDS011;58876;51.994;4.472;2024-03-06T01:08:26;33.59;;;33.08;;
71174;SDS011;58876;51.994;4.472;2024-03-06T01:10:51;34.42;;;33.90;;
71174;SDS011;58876;51.994;4.472;2024-03-06T01:13:20;34.62;;;34.25;;
71174;SDS011;58876;51.994;4.472;2024-03-06T01:15:46;36.11;;;35.30;;
71174;SDS011;58876;51.994;4.472;2024-03-06T01:18:11;35.65;;;34.77;;
71174;SDS011;58876;51.994;4.472;2024-03-06T01:20:36;35.97;;;35.40;;
71174;SDS011;58876;51.994;4.472;2024-03-06T01:23:03;35.25;;;34.80;;
71174;SDS011;58876;51.994;4.472;2024-03-06T01:25:29;35.71;;;35.06;;
71174;SDS011;58876;51.994;4.472;2024-03-06T01:27:54;34.36;;;34.01;;
71174;SDS011;58876;51.994;4.472;2024-03-06T01:30:20;34.43;;;34.39;;
71174;SDS011;58876;51.994;4.472;2024-03-06T01:32:45;33.37;;;33.04;;
71174;SDS011;58876;51.994;4.472;2024-03-06T01:35:11;35.49;;;34.31;;
71174;SDS011;58876;51.994;4.472;2024-03-06T01:37:36;35.21;;;34.63;;
71174;SDS011;58876;51.994;4.472;2024-03-06T01:40:02;34.53;;;33.92;;
71174;SDS011;58876;51.994;4.472;2024-03-06T01:42:29;34.44;;;34.15;;
71174;SDS011;58876;51.994;4.472;2024-03-06T01:44:55;33.60;;;33.40;;
71174;SDS011;58876;51.994;4.472;2024-03-06T01:47:20;33.80;;;33.27;;
71174;SDS011;58876;51.994;4.472;2024-03-06T01:49:46;34.39;;;33.73;;
71174;SDS011;58876;51.994;4.472;2024-03-06T01:52:13;34.13;;;33.98;;
71174;SDS011;58876;51.994;4.472;2024-03-06T01:54:41;32.99;;;32.73;;
71174;SDS011;58876;51.994;4.472;2024-03-06T01:57:07;32.92;;;32.63;;
71174;SDS011;58876;51.994;4.472;2024-03-06T01:59:35;33.56;;;32.94;;
71174;SDS011;58876;51.994;4.472;2024-03-06T02:02:03;33.79;;;33.18;;
71174;SDS011;58876;51.994;4.472;2024-03-06T02:04:28;33.48;;;33.39;;
71174;SDS011;58876;51.994;4.472;2024-03-06T02:06:55;33.04;;;32.61;;
71174;SDS011;58876;51.994;4.472;2024-03-06T02:09:21;32.77;;;32.67;;
71174;SDS011;58876;51.994;4.472;2024-03-06T02:11:48;32.68;;;32.58;;
71174;SDS011;58876;51.994;4.472;2024-03-06T02:14:15;33.31;;;33.10;;
71174;SDS011;58876;51.994;4.472;2024-03-06T02:16:41;32.48;;;32.48;;
71174;SDS011;58876;51.994;4.472;2024-03-06T02:19:07;32.69;;;32.47;;
71174;SDS011;58876;51.994;4.472;2024-03-06T02:21:33;32.12;;;31.98;;
71174;SDS011;58876;51.994;4.472;2024-03-06T02:23:59;31.99;;;31.96;;
71174;SDS011;58876;51.994;4.472;2024-03-06T02:26:25;31.78;;;31.73;;
71174;SDS011;58876;51.994;4.472;2024-03-06T02:28:51;32.09;;;32.03;;
71174;SDS011;58876;51.994;4.472;2024-03-06T02:31:20;33.12;;;32.76;;
71174;SDS011;58876;51.994;4.472;2024-03-06T02:33:48;34.05;;;33.40;;
71174;SDS011;58876;51.994;4.472;2024-03-06T02:36:15;32.89;;;32.59;;
71174;SDS011;58876;51.994;4.472;2024-03-06T02:38:42;35.13;;;34.12;;
71174;SDS011;58876;51.994;4.472;2024-03-06T02:41:08;34.44;;;34.10;;
71174;SDS011;58876;51.994;4.472;2024-03-06T02:43:34;33.98;;;33.92;;
71174;SDS011;58876;51.994;4.472;2024-03-06T02:46:00;33.98;;;33.82;;
71174;SDS011;58876;51.994;4.472;2024-03-06T02:48:26;34.23;;;34.12;;
71174;SDS011;58876;51.994;4.472;2024-03-06T02:50:51;34.58;;;34.26;;
71174;SDS011;58876;51.994;4.472;2024-03-06T02:53:17;33.46;;;33.36;;
71174;SDS011;58876;51.994;4.472;2024-03-06T02:55:42;33.29;;;33.22;;
71174;SDS011;58876;51.994;4.472;2024-03-06T02:58:08;33.60;;;33.39;;
71174;SDS011;58876;51.994;4.472;2024-03-06T03:00:33;32.87;;;32.76;;
71174;SDS011;58876;51.994;4.472;2024-03-06T03:02:59;33.67;;;33.55;;
71174;SDS011;58876;51.994;4.472;2024-03-06T03:05:24;35.55;;;35.30;;
71174;SDS011;58876;51.994;4.472;2024-03-06T03:07:50;35.27;;;35.10;;
71174;SDS011;58876;51.994;4.472;2024-03-06T03:10:16;36.76;;;36.36;;
71174;SDS011;58876;51.994;4.472;2024-03-06T03:12:42;36.75;;;36.63;;
71174;SDS011;58876;51.994;4.472;2024-03-06T03:15:08;36.23;;;36.05;;
71174;SDS011;58876;51.994;4.472;2024-03-06T03:17:34;36.74;;;36.71;;
71174;SDS011;58876;51.994;4.472;2024-03-06T03:20:01;37.55;;;37.47;;
71174;SDS011;58876;51.994;4.472;2024-03-06T03:22:39;36.56;;;36.52;;
71174;SDS011;58876;51.994;4.472;2024-03-06T03:25:08;36.03;;;35.87;;
71174;SDS011;58876;51.994;4.472;2024-03-06T03:27:38;37.18;;;36.93;;
71174;SDS011;58876;51.994;4.472;2024-03-06T03:30:08;37.28;;;36.90;;
71174;SDS011;58876;51.994;4.472;2024-03-06T03:32:34;38.18;;;37.74;;
71174;SDS011;58876;51.994;4.472;2024-03-06T03:35:00;36.80;;;36.77;;
71174;SDS011;58876;51.994;4.472;2024-03-06T03:37:26;37.78;;;37.30;;
71174;SDS011;58876;51.994;4.472;2024-03-06T03:39:52;37.98;;;37.68;;
71174;SDS011;58876;51.994;4.472;2024-03-06T03:42:17;36.65;;;36.61;;
71174;SDS011;58876;51.994;4.472;2024-03-06T03:44:43;37.01;;;36.81;;
71174;SDS011;58876;51.994;4.472;2024-03-06T03:47:08;37.16;;;37.13;;
71174;SDS011;58876;51.994;4.472;2024-03-06T03:49:34;38.30;;;38.02;;
71174;SDS011;58876;51.994;4.472;2024-03-06T03:52:00;38.30;;;37.88;;
71174;SDS011;58876;51.994;4.472;2024-03-06T03:54:25;38.52;;;38.33;;
71174;SDS011;58876;51.994;4.472;2024-03-06T03:56:51;38.46;;;38.22;;
71174;SDS011;58876;51.994;4.472;2024-03-06T03:59:16;38.00;;;37.97;;
71174;SDS011;58876;51.994;4.472;2024-03-06T04:01:44;38.00;;;37.61;;
71174;SDS011;58876;51.994;4.472;2024-03-06T04:04:10;36.98;;;36.95;;
71174;SDS011;58876;51.994;4.472;2024-03-06T04:06:36;36.88;;;36.85;;
71174;SDS011;58876;51.994;4.472;2024-03-06T04:09:01;37.77;;;37.70;;
71174;SDS011;58876;51.994;4.472;2024-03-06T04:11:27;38.12;;;38.06;;
71174;SDS011;58876;51.994;4.472;2024-03-06T04:13:53;38.90;;;38.71;;
71174;SDS011;58876;51.994;4.472;2024-03-06T04:16:18;38.29;;;38.29;;
71174;SDS011;58876;51.994;4.472;2024-03-06T04:18:44;38.17;;;38.14;;
71174;SDS011;58876;51.994;4.472;2024-03-06T04:21:10;38.06;;;37.94;;
71174;SDS011;58876;51.994;4.472;2024-03-06T04:23:36;38.43;;;38.13;;
71174;SDS011;58876;51.994;4.472;2024-03-06T04:26:02;39.21;;;39.06;;
71174;SDS011;58876;51.994;4.472;2024-03-06T04:28:28;38.68;;;38.65;;
71174;SDS011;58876;51.994;4.472;2024-03-06T04:30:55;38.28;;;38.17;;
71174;SDS011;58876;51.994;4.472;2024-03-06T04:33:21;39.19;;;38.78;;
71174;SDS011;58876;51.994;4.472;2024-03-06T04:35:46;38.53;;;38.25;;
71174;SDS011;58876;51.994;4.472;2024-03-06T04:38:12;38.62;;;38.38;;
71174;SDS011;58876;51.994;4.472;2024-03-06T04:40:37;38.55;;;38.28;;
71174;SDS011;58876;51.994;4.472;2024-03-06T04:43:03;39.35;;;38.86;;
71174;SDS011;58876;51.994;4.472;2024-03-06T04:45:28;39.39;;;38.88;;
71174;SDS011;58876;51.994;4.472;2024-03-06T04:47:54;38.52;;;38.33;;
71174;SDS011;58876;51.994;4.472;2024-03-06T04:50:20;38.55;;;38.02;;
71174;SDS011;58876;51.994;4.472;2024-03-06T04:52:46;39.06;;;38.87;;
71174;SDS011;58876;51.994;4.472;2024-03-06T04:55:11;37.52;;;37.47;;
71174;SDS011;58876;51.994;4.472;2024-03-06T04:57:39;38.66;;;38.58;;
71174;SDS011;58876;51.994;4.472;2024-03-06T05:00:08;39.35;;;38.96;;
71174;SDS011;58876;51.994;4.472;2024-03-06T05:02:35;39.05;;;38.86;;
71174;SDS011;58876;51.994;4.472;2024-03-06T05:05:02;38.75;;;38.73;;
71174;SDS011;58876;51.994;4.472;2024-03-06T05:07:29;38.64;;;38.52;;
71174;SDS011;58876;51.994;4.472;2024-03-06T05:09:55;39.10;;;38.73;;
71174;SDS011;58876;51.994;4.472;2024-03-06T05:12:22;37.88;;;37.76;;
71174;SDS011;58876;51.994;4.472;2024-03-06T05:14:51;38.62;;;38.42;;
71174;SDS011;58876;51.994;4.472;2024-03-06T05:17:17;38.81;;;38.75;;
71174;SDS011;58876;51.994;4.472;2024-03-06T05:19:43;37.76;;;37.68;;
71174;SDS011;58876;51.994;4.472;2024-03-06T05:22:10;36.70;;;36.42;;
71174;SDS011;58876;51.994;4.472;2024-03-06T05:24:37;35.29;;;35.28;;
71174;SDS011;58876;51.994;4.472;2024-03-06T05:27:03;35.82;;;35.60;;
71174;SDS011;58876;51.994;4.472;2024-03-06T05:29:29;35.52;;;35.34;;
71174;SDS011;58876;51.994;4.472;2024-03-06T05:31:54;35.72;;;35.71;;
71174;SDS011;58876;51.994;4.472;2024-03-06T05:34:21;35.63;;;35.32;;
71174;SDS011;58876;51.994;4.472;2024-03-06T05:36:47;35.27;;;35.05;;
71174;SDS011;58876;51.994;4.472;2024-03-06T05:39:13;36.00;;;35.96;;
71174;SDS011;58876;51.994;4.472;2024-03-06T05:41:39;35.31;;;35.19;;
71174;SDS011;58876;51.994;4.472;2024-03-06T05:44:06;34.34;;;34.23;;
71174;SDS011;58876;51.994;4.472;2024-03-06T05:46:31;34.63;;;34.51;;
71174;SDS011;58876;51.994;4.472;2024-03-06T05:48:57;35.79;;;35.74;;
71174;SDS011;58876;51.994;4.472;2024-03-06T05:51:23;36.00;;;36.00;;
71174;SDS011;58876;51.994;4.472;2024-03-06T05:53:48;35.24;;;35.09;;
71174;SDS011;58876;51.994;4.472;2024-03-06T05:56:14;34.72;;;34.65;;
71174;SDS011;58876;51.994;4.472;2024-03-06T05:58:39;34.47;;;34.29;;
71174;SDS011;58876;51.994;4.472;2024-03-06T06:01:05;33.83;;;33.75;;
71174;SDS011;58876;51.994;4.472;2024-03-06T06:03:30;34.93;;;34.79;;
71174;SDS011;58876;51.994;4.472;2024-03-06T06:05:56;33.53;;;33.50;;
71174;SDS011;58876;51.994;4.472;2024-03-06T06:08:22;32.79;;;32.76;;
71174;SDS011;58876;51.994;4.472;2024-03-06T06:10:47;33.73;;;33.60;;
71174;SDS011;58876;51.994;4.472;2024-03-06T06:13:13;33.23;;;33.12;;
71174;SDS011;58876;51.994;4.472;2024-03-06T06:15:38;33.69;;;33.42;;
71174;SDS011;58876;51.994;4.472;2024-03-06T06:18:04;34.75;;;34.66;;
71174;SDS011;58876;51.994;4.472;2024-03-06T06:20:29;34.16;;;33.97;;
71174;SDS011;58876;51.994;4.472;2024-03-06T06:22:55;34.08;;;33.97;;
71174;SDS011;58876;51.994;4.472;2024-03-06T06:25:21;34.49;;;34.49;;
71174;SDS011;58876;51.994;4.472;2024-03-06T06:27:47;33.83;;;33.81;;
71174;SDS011;58876;51.994;4.472;2024-03-06T06:30:15;35.21;;;34.72;;
71174;SDS011;58876;51.994;4.472;2024-03-06T06:32:41;34.11;;;33.90;;
71174;SDS011;58876;51.994;4.472;2024-03-06T06:35:08;33.59;;;33.59;;
71174;SDS011;58876;51.994;4.472;2024-03-06T06:37:35;34.78;;;34.68;;
71174;SDS011;58876;51.994;4.472;2024-03-06T06:40:01;34.67;;;34.66;;
71174;SDS011;58876;51.994;4.472;2024-03-06T06:42:32;33.92;;;33.72;;
71174;SDS011;58876;51.994;4.472;2024-03-06T06:44:58;34.21;;;34.00;;
71174;SDS011;58876;51.994;4.472;2024-03-06T06:47:24;33.54;;;33.28;;
71174;SDS011;58876;51.994;4.472;2024-03-06T06:49:50;33.86;;;33.36;;
71174;SDS011;58876;51.994;4.472;2024-03-06T06:52:15;32.47;;;32.42;;
71174;SDS011;58876;51.994;4.472;2024-03-06T06:54:41;32.38;;;32.37;;
71174;SDS011;58876;51.994;4.472;2024-03-06T06:57:06;32.21;;;32.19;;
71174;SDS011;58876;51.994;4.472;2024-03-06T06:59:33;32.75;;;32.61;;
71174;SDS011;58876;51.994;4.472;2024-03-06T07:01:59;32.11;;;31.98;;
71174;SDS011;58876;51.994;4.472;2024-03-06T07:04:25;31.84;;;31.79;;
71174;SDS011;58876;51.994;4.472;2024-03-06T07:06:51;32.28;;;32.17;;
71174;SDS011;58876;51.994;4.472;2024-03-06T07:09:17;30.83;;;30.79;;
71174;SDS011;58876;51.994;4.472;2024-03-06T07:11:43;30.54;;;30.49;;
71174;SDS011;58876;51.994;4.472;2024-03-06T07:14:09;30.65;;;30.61;;
71174;SDS011;58876;51.994;4.472;2024-03-06T07:16:41;29.97;;;29.96;;
71174;SDS011;58876;51.994;4.472;2024-03-06T07:19:07;30.27;;;30.27;;
71174;SDS011;58876;51.994;4.472;2024-03-06T07:21:33;29.39;;;29.38;;
71174;SDS011;58876;51.994;4.472;2024-03-06T07:23:58;28.64;;;28.63;;
71174;SDS011;58876;51.994;4.472;2024-03-06T07:26:24;28.51;;;28.51;;
71174;SDS011;58876;51.994;4.472;2024-03-06T07:28:51;29.36;;;29.31;;
71174;SDS011;58876;51.994;4.472;2024-03-06T07:31:17;29.06;;;29.06;;
71174;SDS011;58876;51.994;4.472;2024-03-06T07:33:43;29.58;;;29.58;;
71174;SDS011;58876;51.994;4.472;2024-03-06T07:36:09;30.13;;;30.13;;
71174;SDS011;58876;51.994;4.472;2024-03-06T07:38:34;29.18;;;29.18;;
71174;SDS011;58876;51.994;4.472;2024-03-06T07:41:00;29.78;;;29.78;;
71174;SDS011;58876;51.994;4.472;2024-03-06T07:43:25;29.97;;;29.97;;
71174;SDS011;58876;51.994;4.472;2024-03-06T07:45:51;30.73;;;30.73;;
71174;SDS011;58876;51.994;4.472;2024-03-06T07:48:17;30.13;;;30.10;;
71174;SDS011;58876;51.994;4.472;2024-03-06T07:50:42;31.18;;;31.17;;
71174;SDS011;58876;51.994;4.472;2024-03-06T07:53:08;31.41;;;31.40;;
71174;SDS011;58876;51.994;4.472;2024-03-06T07:55:33;31.32;;;31.32;;
71174;SDS011;58876;51.994;4.472;2024-03-06T07:57:59;31.85;;;31.85;;
71174;SDS011;58876;51.994;4.472;2024-03-06T08:00:24;31.87;;;31.87;;
71174;SDS011;58876;51.994;4.472;2024-03-06T08:02:50;32.42;;;32.42;;
71174;SDS011;58876;51.994;4.472;2024-03-06T08:05:15;32.24;;;32.24;;
71174;SDS011;58876;51.994;4.472;2024-03-06T08:07:42;32.16;;;32.16;;
71174;SDS011;58876;51.994;4.472;2024-03-06T08:10:08;32.25;;;32.25;;
71174;SDS011;58876;51.994;4.472;2024-03-06T08:12:34;32.61;;;32.61;;
71174;SDS011;58876;51.994;4.472;2024-03-06T08:15:00;33.13;;;33.13;;
71174;SDS011;58876;51.994;4.472;2024-03-06T08:17:27;33.39;;;33.38;;
71174;SDS011;58876;51.994;4.472;2024-03-06T08:19:52;33.59;;;33.58;;
71174;SDS011;58876;51.994;4.472;2024-03-06T08:22:20;33.57;;;33.57;;
71174;SDS011;58876;51.994;4.472;2024-03-06T08:24:46;33.01;;;33.00;;
71174;SDS011;58876;51.994;4.472;2024-03-06T08:27:14;33.25;;;33.25;;
71174;SDS011;58876;51.994;4.472;2024-03-06T08:29:40;34.20;;;34.19;;
71174;SDS011;58876;51.994;4.472;2024-03-06T08:32:05;33.75;;;33.75;;
71174;SDS011;58876;51.994;4.472;2024-03-06T08:34:30;34.31;;;34.31;;
71174;SDS011;58876;51.994;4.472;2024-03-06T08:36:57;34.48;;;34.48;;
71174;SDS011;58876;51.994;4.472;2024-03-06T08:39:22;33.13;;;33.13;;
71174;SDS011;58876;51.994;4.472;2024-03-06T08:41:47;33.19;;;33.19;;
71174;SDS011;58876;51.994;4.472;2024-03-06T08:44:13;33.44;;;33.44;;
71174;SDS011;58876;51.994;4.472;2024-03-06T08:46:39;32.36;;;32.36;;
71174;SDS011;58876;51.994;4.472;2024-03-06T08:49:04;33.23;;;33.23;;
71174;SDS011;58876;51.994;4.472;2024-03-06T08:51:30;34.61;;;34.61;;
71174;SDS011;58876;51.994;4.472;2024-03-06T08:53:56;34.75;;;34.75;;
71174;SDS011;58876;51.994;4.472;2024-03-06T08:56:21;34.26;;;34.26;;
71174;SDS011;58876;51.994;4.472;2024-03-06T08:58:46;35.27;;;35.27;;
71174;SDS011;58876;51.994;4.472;2024-03-06T09:01:12;35.78;;;35.78;;
71174;SDS011;58876;51.994;4.472;2024-03-06T09:03:37;36.07;;;36.07;;
71174;SDS011;58876;51.994;4.472;2024-03-06T09:06:03;35.81;;;35.81;;
71174;SDS011;58876;51.994;4.472;2024-03-06T09:08:28;35.38;;;35.37;;
71174;SDS011;58876;51.994;4.472;2024-03-06T09:10:55;36.55;;;36.55;;
71174;SDS011;58876;51.994;4.472;2024-03-06T09:13:24;36.46;;;36.44;;
71174;SDS011;58876;51.994;4.472;2024-03-06T09:15:50;36.09;;;36.09;;
71174;SDS011;58876;51.994;4.472;2024-03-06T09:18:16;36.14;;;36.14;;
71174;SDS011;58876;51.994;4.472;2024-03-06T09:20:42;35.58;;;35.58;;
71174;SDS011;58876;51.994;4.472;2024-03-06T09:23:08;36.80;;;36.80;;
71174;SDS011;58876;51.994;4.472;2024-03-06T09:25:33;35.66;;;35.64;;
71174;SDS011;58876;51.994;4.472;2024-03-06T09:27:59;35.61;;;35.61;;
71174;SDS011;58876;51.994;4.472;2024-03-06T09:30:25;36.08;;;36.04;;
71174;SDS011;58876;51.994;4.472;2024-03-06T09:32:51;33.25;;;33.25;;
71174;SDS011;58876;51.994;4.472;2024-03-06T09:35:16;32.11;;;32.11;;
71174;SDS011;58876;51.994;4.472;2024-03-06T09:37:42;32.09;;;32.01;;
71174;SDS011;58876;51.994;4.472;2024-03-06T09:40:11;30.04;;;30.02;;
71174;SDS011;58876;51.994;4.472;2024-03-06T09:42:46;28.72;;;28.72;;
71174;SDS011;58876;51.994;4.472;2024-03-06T09:45:12;29.44;;;29.35;;
71174;SDS011;58876;51.994;4.472;2024-03-06T09:47:37;29.86;;;29.86;;
71174;SDS011;58876;51.994;4.472;2024-03-06T09:50:05;28.78;;;28.78;;
71174;SDS011;58876;51.994;4.472;2024-03-06T09:52:34;26.63;;;26.63;;
71174;SDS011;58876;51.994;4.472;2024-03-06T09:55:01;26.90;;;26.79;;
71174;SDS011;58876;51.994;4.472;2024-03-06T09:57:29;26.49;;;26.49;;
71174;SDS011;58876;51.994;4.472;2024-03-06T09:59:55;25.35;;;25.35;;
71174;SDS011;58876;51.994;4.472;2024-03-06T10:04:59;22.64;;;22.58;;
71174;SDS011;58876;51.994;4.472;2024-03-06T10:07:25;21.21;;;21.16;;
71174;SDS011;58876;51.994;4.472;2024-03-06T10:09:52;20.42;;;20.42;;
71174;SDS011;58876;51.994;4.472;2024-03-06T10:12:17;20.74;;;20.71;;
71174;SDS011;58876;51.994;4.472;2024-03-06T10:14:48;20.17;;;20.11;;
71174;SDS011;58876;51.994;4.472;2024-03-06T10:17:18;18.06;;;18.02;;
71174;SDS011;58876;51.994;4.472;2024-03-06T10:19:48;17.15;;;17.14;;
71174;SDS011;58876;51.994;4.472;2024-03-06T10:22:16;17.07;;;17.07;;
71174;SDS011;58876;51.994;4.472;2024-03-06T10:24:42;17.82;;;17.78;;
71174;SDS011;58876;51.994;4.472;2024-03-06T10:27:08;19.43;;;19.34;;
71174;SDS011;58876;51.994;4.472;2024-03-06T10:29:34;19.11;;;19.11;;
71174;SDS011;58876;51.994;4.472;2024-03-06T10:32:00;18.89;;;18.83;;
71174;SDS011;58876;51.994;4.472;2024-03-06T10:34:29;18.75;;;18.75;;
71174;SDS011;58876;51.994;4.472;2024-03-06T10:36:58;17.84;;;17.84;;
71174;SDS011;58876;51.994;4.472;2024-03-06T10:39:24;17.50;;;17.50;;
71174;SDS011;58876;51.994;4.472;2024-03-06T10:41:54;16.88;;;16.85;;
71174;SDS011;58876;51.994;4.472;2024-03-06T10:44:21;16.10;;;16.10;;
71174;SDS011;58876;51.994;4.472;2024-03-06T10:46:53;16.83;;;16.74;;
71174;SDS011;58876;51.994;4.472;2024-03-06T10:49:23;16.34;;;16.34;;
71174;SDS011;58876;51.994;4.472;2024-03-06T10:51:51;15.84;;;15.84;;
71174;SDS011;58876;51.994;4.472;2024-03-06T10:54:18;15.98;;;15.98;;
71174;SDS011;58876;51.994;4.472;2024-03-06T10:56:46;16.10;;;16.10;;
71174;SDS011;58876;51.994;4.472;2024-03-06T10:59:11;16.44;;;16.44;;
71174;SDS011;58876;51.994;4.472;2024-03-06T11:01:41;17.13;;;17.13;;
71174;SDS011;58876;51.994;4.472;2024-03-06T11:04:09;16.83;;;16.83;;
71174;SDS011;58876;51.994;4.472;2024-03-06T11:06:36;15.89;;;15.89;;
71174;SDS011;58876;51.994;4.472;2024-03-06T11:09:03;15.67;;;15.66;;
71174;SDS011;58876;51.994;4.472;2024-03-06T11:11:29;14.00;;;14.00;;
71174;SDS011;58876;51.994;4.472;2024-03-06T11:13:55;14.20;;;14.17;;
71174;SDS011;58876;51.994;4.472;2024-03-06T11:16:29;13.90;;;13.89;;
71174;SDS011;58876;51.994;4.472;2024-03-06T11:19:07;13.60;;;13.60;;
71174;SDS011;58876;51.994;4.472;2024-03-06T11:21:34;13.98;;;13.98;;
71174;SDS011;58876;51.994;4.472;2024-03-06T11:24:13;12.74;;;12.74;;
71174;SDS011;58876;51.994;4.472;2024-03-06T11:26:45;11.05;;;11.05;;
71174;SDS011;58876;51.994;4.472;2024-03-06T11:29:17;10.66;;;10.66;;
71174;SDS011;58876;51.994;4.472;2024-03-06T11:34:42;10.61;;;10.61;;
71174;SDS011;58876;51.994;4.472;2024-03-06T11:37:07;10.17;;;10.17;;
71174;SDS011;58876;51.994;4.472;2024-03-06T11:39:34;10.21;;;10.21;;
71174;SDS011;58876;51.994;4.472;2024-03-06T11:42:02;10.69;;;10.69;;
71174;SDS011;58876;51.994;4.472;2024-03-06T11:44:28;11.09;;;11.09;;
71174;SDS011;58876;51.994;4.472;2024-03-06T11:47:01;10.52;;;10.52;;
71174;SDS011;58876;51.994;4.472;2024-03-06T11:49:29;8.94;;;8.94;;
71174;SDS011;58876;51.994;4.472;2024-03-06T11:52:02;8.43;;;8.43;;
71174;SDS011;58876;51.994;4.472;2024-03-06T11:54:30;8.01;;;8.01;;
71174;SDS011;58876;51.994;4.472;2024-03-06T11:56:58;8.12;;;8.12;;
71174;SDS011;58876;51.994;4.472;2024-03-06T11:59:26;8.06;;;8.06;;
71174;SDS011;58876;51.994;4.472;2024-03-06T12:01:53;8.19;;;8.19;;
71174;SDS011;58876;51.994;4.472;2024-03-06T12:04:20;8.87;;;8.87;;
71174;SDS011;58876;51.994;4.472;2024-03-06T12:06:46;9.11;;;9.11;;
71174;SDS011;58876;51.994;4.472;2024-03-06T12:09:13;9.60;;;9.60;;
71174;SDS011;58876;51.994;4.472;2024-03-06T12:11:38;9.53;;;9.53;;
71174;SDS011;58876;51.994;4.472;2024-03-06T12:14:04;9.47;;;9.47;;
71174;SDS011;58876;51.994;4.472;2024-03-06T12:16:30;8.63;;;8.63;;
71174;SDS011;58876;51.994;4.472;2024-03-06T12:18:56;8.74;;;8.74;;
71174;SDS011;58876;51.994;4.472;2024-03-06T12:21:31;8.66;;;8.66;;
71174;SDS011;58876;51.994;4.472;2024-03-06T12:24:04;8.76;;;8.76;;
71174;SDS011;58876;51.994;4.472;2024-03-06T12:26:32;8.72;;;8.72;;
71174;SDS011;58876;51.994;4.472;2024-03-06T12:29:07;9.22;;;9.22;;
71174;SDS011;58876;51.994;4.472;2024-03-06T12:31:35;9.00;;;9.00;;
71174;SDS011;58876;51.994;4.472;2024-03-06T12:34:02;8.20;;;8.20;;
71174;SDS011;58876;51.994;4.472;2024-03-06T12:36:29;8.85;;;8.85;;
71174;SDS011;58876;51.994;4.472;2024-03-06T12:38:56;9.30;;;9.30;;
71174;SDS011;58876;51.994;4.472;2024-03-06T12:41:25;9.91;;;9.91;;
71174;SDS011;58876;51.994;4.472;2024-03-06T12:43:51;9.26;;;9.26;;
71174;SDS011;58876;51.994;4.472;2024-03-06T12:46:17;9.25;;;9.25;;
71174;SDS011;58876;51.994;4.472;2024-03-06T12:48:44;8.96;;;8.96;;
71174;SDS011;58876;51.994;4.472;2024-03-06T12:51:10;9.61;;;9.61;;
71174;SDS011;58876;51.994;4.472;2024-03-06T12:53:35;8.98;;;8.98;;
71174;SDS011;58876;51.994;4.472;2024-03-06T12:56:01;9.48;;;9.48;;
71174;SDS011;58876;51.994;4.472;2024-03-06T12:58:26;9.40;;;9.40;;
71174;SDS011;58876;51.994;4.472;2024-03-06T13:00:52;9.01;;;9.01;;
71174;SDS011;58876;51.994;4.472;2024-03-06T13:03:19;8.32;;;8.32;;
71174;SDS011;58876;51.994;4.472;2024-03-06T13:05:44;7.84;;;7.84;;
71174;SDS011;58876;51.994;4.472;2024-03-06T13:08:11;7.69;;;7.69;;
71174;SDS011;58876;51.994;4.472;2024-03-06T13:10:39;7.21;;;7.21;;
71174;SDS011;58876;51.994;4.472;2024-03-06T13:13:05;7.99;;;7.99;;
71174;SDS011;58876;51.994;4.472;2024-03-06T13:15:32;8.42;;;8.42;;
71174;SDS011;58876;51.994;4.472;2024-03-06T13:18:00;9.69;;;9.69;;
71174;SDS011;58876;51.994;4.472;2024-03-06T13:20:29;9.62;;;9.62;;
71174;SDS011;58876;51.994;4.472;2024-03-06T13:22:55;9.45;;;9.45;;
71174;SDS011;58876;51.994;4.472;2024-03-06T13:26:54;8.38;;;8.38;;
71174;SDS011;58876;51.994;4.472;2024-03-06T13:29:20;8.30;;;8.30;;
71174;SDS011;58876;51.994;4.472;2024-03-06T13:31:45;8.87;;;8.87;;
71174;SDS011;58876;51.994;4.472;2024-03-06T13:34:11;11.43;;;11.42;;
71174;SDS011;58876;51.994;4.472;2024-03-06T13:36:36;13.77;;;13.55;;
71174;SDS011;58876;51.994;4.472;2024-03-06T13:39:01;11.85;;;11.77;;
71174;SDS011;58876;51.994;4.472;2024-03-06T13:41:27;8.91;;;8.88;;
71174;SDS011;58876;51.994;4.472;2024-03-06T13:43:54;9.07;;;9.07;;
71174;SDS011;58876;51.994;4.472;2024-03-06T13:46:20;7.59;;;7.59;;
71174;SDS011;58876;51.994;4.472;2024-03-06T13:48:45;6.13;;;6.13;;
71174;SDS011;58876;51.994;4.472;2024-03-06T13:51:11;6.42;;;6.42;;
71174;SDS011;58876;51.994;4.472;2024-03-06T13:53:36;7.56;;;7.56;;
71174;SDS011;58876;51.994;4.472;2024-03-06T13:56:02;6.61;;;6.61;;
71174;SDS011;58876;51.994;4.472;2024-03-06T13:58:27;6.05;;;6.05;;
71174;SDS011;58876;51.994;4.472;2024-03-06T14:00:53;5.99;;;5.99;;
71174;SDS011;58876;51.994;4.472;2024-03-06T14:03:18;6.02;;;6.02;;
71174;SDS011;58876;51.994;4.472;2024-03-06T14:05:44;5.85;;;5.85;;
71174;SDS011;58876;51.994;4.472;2024-03-06T14:08:09;6.35;;;6.35;;
71174;SDS011;58876;51.994;4.472;2024-03-06T14:10:39;6.41;;;6.41;;
71174;SDS011;58876;51.994;4.472;2024-03-06T14:13:05;7.08;;;7.08;;
71174;SDS011;58876;51.994;4.472;2024-03-06T14:15:32;7.15;;;7.15;;
71174;SDS011;58876;51.994;4.472;2024-03-06T14:17:57;7.31;;;7.31;;
71174;SDS011;58876;51.994;4.472;2024-03-06T14:20:23;6.93;;;6.93;;
71174;SDS011;58876;51.994;4.472;2024-03-06T14:22:49;6.99;;;6.99;;
71174;SDS011;58876;51.994;4.472;2024-03-06T14:25:14;7.73;;;7.73;;
71174;SDS011;58876;51.994;4.472;2024-03-06T14:27:41;7.78;;;7.78;;